Главная страница
METAR-TAF:

METAR-TAF

Аэропорты :

Turaif, Саудовская Аравия

широта: 31-41N, долгота: 038-44E, высота над уровнем моря: 813 м

Текущие метеонаблюдения

Эта сводка был подготовлена 51 минут назад, в 03:00 UTC
Ветер 8 Узел от западный
Температура 9°C
Влажность 87%
Давление 1012 hPa
Видимость 10 км и более
Нет облачности ниже 1500 м, и нет кучево-дождевой облачности

METAR: OETR 100300Z 27008KT CAVOK 09/07 Q1012

Время: 06:51 (03:51 UTC)

Прогноз

Эта сводка был подготовлена 16 часа и 51 минут назад, в 11:00 UTC
Прогноз действительный с 09-го 12 UTC до 10-го 18 UTC
Ветер 8 Узел от западно-северо-западный с порывами до 18 Узел
Видимость: 7000 м
изменения
С 09-го 18 UTC до 09-го 20 UTC
Ветер 3 Узел переменных направлений
временами
С 10-го 00 UTC до 10-го 05 UTC
Видимость: 3000 м
дымка
изменения
С 10-го 06 UTC до 10-го 08 UTC
Ветер 14 Узел от западно-северо-западный

TAF: OETR 091100Z 0912/1018 29008G18KT 7000 NSC BECMG 0918/0920 VRB03KT TEMPO 1000/1005 3000 BR BECMG 1006/1008 29014KT

Метеонаблюдения и прогнозы для более 4000 аэропортов (сводки METAR и TAF).

Имеющиеся станции представлены на карте желтыми и красными точками.

Чтобы увидеть название станции, наведите на нее мышь.

Затем щелкните, чтобы увидеть метеонаблюдения и метеопрогнозы.

Управление картой: чтобы увеличить масштаб, щелкните зеленые кнопки с черным крестиком; чтобы уменьшить масштаб, щелкните зеленую кнопку с тире; для просмотра соседних карт щелкайте зеленые стрелки.


METAR-TAF: